NCAR-RAP Real-Time Weather Data

Output produced by METARs form (06 May 2021  16:34 UTC)
found at http://weather.rap.ucar.edu/surface/
 
KERI 061551Z 33005KT 10SM CLR 11/M01 A3014 RMK AO2 SLP208 T01061011
KERI 061451Z 32004KT 10SM CLR 10/M01 A3014 RMK AO2 SLP208 T01001006 50004
KERI 061351Z 31007KT 10SM CLR 09/01 A3014 RMK AO2 SLP208 T00890006
KERI 061251Z 32006KT 10SM CLR 08/00 A3013 RMK AO2 SLP205 T00830000
KERI 061151Z 30003KT 10SM CLR 08/01 A3012 RMK AO2 SLP204 T00780006 10078 20017 53007
KERI 061051Z 19003KT 10SM CLR 02/00 A3011 RMK AO2 SLP200 T00220000
KERI 060951Z 00000KT 10SM CLR 06/01 A3010 RMK AO2 SLP197 T00610006
KERI 060851Z AUTO 33007KT 10SM CLR 07/01 A3010 RMK AO2 SLP196 T00670006 53002
KERI 060751Z AUTO 30003KT 10SM CLR 06/03 A3010 RMK AO2 SLP196 T00610028
KERI 060651Z AUTO 30005KT 10SM CLR 08/03 A3008 RMK AO2 SLP190 T00780028
KERI 060551Z AUTO 30005KT 10SM CLR 08/04 A3010 RMK AO2 SLP194 T00780039 10089 20078 55000
KERI 060451Z AUTO 31007KT 10SM CLR 08/04 A3010 RMK AO2 SLP195 T00780039 401000078
KERI 060351Z 30009KT 10SM CLR 08/04 A3009 RMK AO2 SLP192 T00780044
KERI 060251Z 29007G15KT 10SM CLR 08/04 A3010 RMK AO2 SLP194 T00830044 51018
KERI 060151Z 28007KT 10SM SCT037 BKN070 08/04 A3009 RMK AO2 SLP191 T00830039
KERI 060051Z 28010KT 10SM OVC060 09/04 A3006 RMK AO2 SLP182 T00890039